Carolyn Ann — WDE6535 — position and weather

sailwx.info

Track history (hours):
 
Tides and Currents Weather Stations Pressure Air Temp Water Temp Dewpoint Dewpoint Depression Visibility Wind Speed Wind Dir Waves Ship Positions

Carolyn Ann

Owner: Pica, Joseph C, New Bern, NC. More information available from US FCC via Universal Licensing System and Coast Guard Vessel Documentation Center.

Last reported at 2017-Sep-20 17:48 UTC. Time now 2017-Oct-17 04:21 UTC.
Position N 38°52' W 076°26'.
Warning: this ship's position is 26 days out of date.

Length 12 m.

Type: Pleasure craft. MMSI: 367381460.

Date/timePositionNaut miles runAvg speedWind from/ knotsBaromVisibWave heightAir tempDewpointWater temp
2017-Sep-20 17:48N 38°52' W 076°26'2 7.9
2017-Sep-20 17:30N 38°55' W 076°25'4 8.0
2017-Sep-20 17:00N 38°58' W 076°24'4 7.9
2017-Sep-20 16:29N 39°03' W 076°23'13 7.1
2017-Sep-20 14:39N 39°13' W 076°32'4 6.2
2017-Sep-20 14:00N 39°17' W 076°35'0 0.0
2017-Sep-18 18:41N 39°17' W 076°35'0 0.0
2017-Sep-18 18:29N 39°17' W 076°35'0 0.8
2017-Sep-18 18:00N 39°16' W 076°35'  
2017-Sep-15 09:16N 38°58' W 076°15'0 0.0
2017-Sep-14 08:01N 38°58' W 076°15'0 0.0
2017-Sep-14 07:52N 38°58' W 076°15'0 0.0
2017-Sep-14 07:22N 38°58' W 076°15'0 0.0
2017-Sep-14 06:46N 38°58' W 076°15'0 0.0
2017-Sep-14 06:28N 38°58' W 076°15'0 0.0
2017-Sep-14 05:52N 38°58' W 076°15'0 0.0
2017-Sep-14 05:28N 38°58' W 076°15'0 0.0
2017-Sep-14 04:58N 38°58' W 076°15'0 0.0
2017-Sep-13 07:52N 38°58' W 076°15'0 0.0
2017-Sep-13 07:19N 38°58' W 076°15'0 0.0
2017-Sep-13 04:19N 38°58' W 076°15'0 0.0
2017-Sep-13 03:52N 38°58' W 076°15'0 0.0
2017-Sep-13 03:22N 38°58' W 076°15'0 0.0
2017-Sep-13 02:49N 38°58' W 076°15'0 0.0
2017-Sep-13 02:28N 38°58' W 076°15'0 0.0
2017-Sep-13 01:58N 38°58' W 076°15'0 0.0
2017-Sep-12 14:07N 38°58' W 076°15'0 0.0
2017-Sep-12 13:25N 38°58' W 076°15'  
Track history (hours):
 
Tides and Currents Weather Stations Pressure Air Temp Water Temp Dewpoint Dewpoint Depression Visibility Wind Speed Wind Dir Waves Ship Positions

Carolyn Ann

Owner: Pica, Joseph C, New Bern, NC. More information available from US FCC via Universal Licensing System and Coast Guard Vessel Documentation Center.

Last reported at 2017-Sep-20 17:48 UTC. Time now 2017-Oct-17 04:21 UTC.
Position N 38°52' W 076°26'.
Warning: this ship's position is 26 days out of date.

Length 12 m.

Type: Pleasure craft. MMSI: 367381460.

Date/timePositionNaut miles runAvg speedWind from/ knotsBaromVisibWave heightAir tempDewpointWater temp
2017-Sep-20 17:48N 38°52' W 076°26'2 7.9
2017-Sep-20 17:30N 38°55' W 076°25'4 8.0
2017-Sep-20 17:00N 38°58' W 076°24'4 7.9
2017-Sep-20 16:29N 39°03' W 076°23'13 7.1
2017-Sep-20 14:39N 39°13' W 076°32'4 6.2
2017-Sep-20 14:00N 39°17' W 076°35'0 0.0
2017-Sep-18 18:41N 39°17' W 076°35'0 0.0
2017-Sep-18 18:29N 39°17' W 076°35'0 0.8
2017-Sep-18 18:00N 39°16' W 076°35'  
2017-Sep-15 09:16N 38°58' W 076°15'0 0.0
2017-Sep-14 08:01N 38°58' W 076°15'0 0.0
2017-Sep-14 07:52N 38°58' W 076°15'0 0.0
2017-Sep-14 07:22N 38°58' W 076°15'0 0.0
2017-Sep-14 06:46N 38°58' W 076°15'0 0.0
2017-Sep-14 06:28N 38°58' W 076°15'0 0.0
2017-Sep-14 05:52N 38°58' W 076°15'0 0.0
2017-Sep-14 05:28N 38°58' W 076°15'0 0.0
2017-Sep-14 04:58N 38°58' W 076°15'0 0.0
2017-Sep-13 07:52N 38°58' W 076°15'0 0.0
2017-Sep-13 07:19N 38°58' W 076°15'0 0.0
2017-Sep-13 04:19N 38°58' W 076°15'0 0.0
2017-Sep-13 03:52N 38°58' W 076°15'0 0.0
2017-Sep-13 03:22N 38°58' W 076°15'0 0.0
2017-Sep-13 02:49N 38°58' W 076°15'0 0.0
2017-Sep-13 02:28N 38°58' W 076°15'0 0.0
2017-Sep-13 01:58N 38°58' W 076°15'0 0.0
2017-Sep-12 14:07N 38°58' W 076°15'0 0.0
2017-Sep-12 13:25N 38°58' W 076°15'  

Dump ship's entire track history